sensor_id;sensor_type;location;lat;lon;timestamp;pressure;altitude;pressure_sealevel;temperature;humidity
53619;BME280;68717;53.040;18.488;2024-01-30T00:00:08;102836.03;;;0.29;100.00
53619;BME280;68717;53.040;18.488;2024-01-30T00:00:21;102839.53;;;0.29;100.00
53619;BME280;68717;53.040;18.488;2024-01-30T00:00:55;102840.41;;;0.30;100.00
53619;BME280;68717;53.040;18.488;2024-01-30T00:01:28;102836.91;;;0.29;100.00
53619;BME280;68717;53.040;18.488;2024-01-30T00:01:43;102831.63;;;0.29;100.00
53619;BME280;68717;53.040;18.488;2024-01-30T00:01:56;102838.69;;;0.29;100.00
53619;BME280;68717;53.040;18.488;2024-01-30T00:02:09;102835.16;;;0.28;100.00
53619;BME280;68717;53.040;18.488;2024-01-30T00:02:22;102838.69;;;0.29;100.00
53619;BME280;68717;53.040;18.488;2024-01-30T00:02:35;102840.44;;;0.28;100.00
53619;BME280;68717;53.040;18.488;2024-01-30T00:02:49;102830.75;;;0.29;100.00
53619;BME280;68717;53.040;18.488;2024-01-30T00:03:03;102835.16;;;0.28;100.00
53619;BME280;68717;53.040;18.488;2024-01-30T00:03:16;102839.56;;;0.28;100.00
53619;BME280;68717;53.040;18.488;2024-01-30T00:03:29;102835.16;;;0.28;100.00
53619;BME280;68717;53.040;18.488;2024-01-30T00:03:42;102841.31;;;0.29;100.00
53619;BME280;68717;53.040;18.488;2024-01-30T00:03:55;102834.28;;;0.28;100.00
53619;BME280;68717;53.040;18.488;2024-01-30T00:04:08;102836.91;;;0.28;100.00
53619;BME280;68717;53.040;18.488;2024-01-30T00:04:21;102840.44;;;0.28;100.00
53619;BME280;68717;53.040;18.488;2024-01-30T00:04:34;102843.94;;;0.29;100.00
53619;BME280;68717;53.040;18.488;2024-01-30T00:04:47;102841.31;;;0.29;100.00
53619;BME280;68717;53.040;18.488;2024-01-30T00:05:02;102837.81;;;0.28;100.00
53619;BME280;68717;53.040;18.488;2024-01-30T00:05:18;102840.44;;;0.28;100.00
53619;BME280;68717;53.040;18.488;2024-01-30T00:05:31;102838.69;;;0.27;100.00
53619;BME280;68717;53.040;18.488;2024-01-30T00:05:44;102839.56;;;0.28;100.00
53619;BME280;68717;53.040;18.488;2024-01-30T00:05:57;102837.81;;;0.28;100.00
53619;BME280;68717;53.040;18.488;2024-01-30T00:06:11;102837.81;;;0.27;100.00
53619;BME280;68717;53.040;18.488;2024-01-30T00:06:24;102841.31;;;0.27;100.00
53619;BME280;68717;53.040;18.488;2024-01-30T00:06:37;102838.69;;;0.27;100.00
53619;BME280;68717;53.040;18.488;2024-01-30T00:06:51;102835.16;;;0.28;100.00
53619;BME280;68717;53.040;18.488;2024-01-30T00:07:05;102843.09;;;0.27;100.00
53619;BME280;68717;53.040;18.488;2024-01-30T00:07:19;102838.69;;;0.27;100.00
53619;BME280;68717;53.040;18.488;2024-01-30T00:07:32;102837.81;;;0.27;100.00
53619;BME280;68717;53.040;18.488;2024-01-30T00:07:45;102843.97;;;0.27;100.00
53619;BME280;68717;53.040;18.488;2024-01-30T00:07:58;102843.09;;;0.27;100.00
53619;BME280;68717;53.040;18.488;2024-01-30T00:08:11;102843.97;;;0.27;100.00
53619;BME280;68717;53.040;18.488;2024-01-30T00:08:24;102831.69;;;0.26;100.00
53619;BME280;68717;53.040;18.488;2024-01-30T00:08:40;102829.91;;;0.27;100.00
53619;BME280;68717;53.040;18.488;2024-01-30T00:08:54;102838.69;;;0.27;100.00
53619;BME280;68717;53.040;18.488;2024-01-30T00:09:07;102837.81;;;0.27;100.00
53619;BME280;68717;53.040;18.488;2024-01-30T00:09:20;102837.81;;;0.27;100.00
53619;BME280;68717;53.040;18.488;2024-01-30T00:09:33;102836.03;;;0.27;100.00
53619;BME280;68717;53.040;18.488;2024-01-30T00:09:46;102839.56;;;0.28;100.00
53619;BME280;68717;53.040;18.488;2024-01-30T00:10:00;102836.91;;;0.28;100.00
53619;BME280;68717;53.040;18.488;2024-01-30T00:10:13;102838.69;;;0.27;100.00
53619;BME280;68717;53.040;18.488;2024-01-30T00:10:26;102841.31;;;0.26;100.00
53619;BME280;68717;53.040;18.488;2024-01-30T00:10:39;102837.81;;;0.27;100.00
53619;BME280;68717;53.040;18.488;2024-01-30T00:10:53;102840.44;;;0.27;100.00
53619;BME280;68717;53.040;18.488;2024-01-30T00:11:07;102836.94;;;0.26;100.00
53619;BME280;68717;53.040;18.488;2024-01-30T00:11:20;102836.06;;;0.26;100.00
53619;BME280;68717;53.040;18.488;2024-01-30T00:11:33;102830.78;;;0.26;100.00
53619;BME280;68717;53.040;18.488;2024-01-30T00:11:46;102834.31;;;0.25;100.00
53619;BME280;68717;53.040;18.488;2024-01-30T00:11:59;102843.97;;;0.26;100.00
53619;BME280;68717;53.040;18.488;2024-01-30T00:12:12;102841.31;;;0.26;100.00
53619;BME280;68717;53.040;18.488;2024-01-30T00:12:25;102839.59;;;0.25;100.00
53619;BME280;68717;53.040;18.488;2024-01-30T00:12:39;102836.09;;;0.24;100.00
53619;BME280;68717;53.040;18.488;2024-01-30T00:12:53;102838.72;;;0.24;100.00
53619;BME280;68717;53.040;18.488;2024-01-30T00:13:06;102840.47;;;0.24;100.00
53619;BME280;68717;53.040;18.488;2024-01-30T00:13:19;102843.09;;;0.24;100.00
53619;BME280;68717;53.040;18.488;2024-01-30T00:13:33;102837.81;;;0.24;100.00
53619;BME280;68717;53.040;18.488;2024-01-30T00:13:46;102837.81;;;0.24;100.00
53619;BME280;68717;53.040;18.488;2024-01-30T00:13:59;102843.09;;;0.24;100.00
53619;BME280;68717;53.040;18.488;2024-01-30T00:14:12;102840.50;;;0.22;100.00
53619;BME280;68717;53.040;18.488;2024-01-30T00:14:25;102836.97;;;0.23;100.00
53619;BME280;68717;53.040;18.488;2024-01-30T00:14:38;102842.25;;;0.22;100.00
53619;BME280;68717;53.040;18.488;2024-01-30T00:14:52;102836.09;;;0.23;100.00
53619;BME280;68717;53.040;18.488;2024-01-30T00:15:07;102838.72;;;0.23;100.00
53619;BME280;68717;53.040;18.488;2024-01-30T00:15:22;102838.72;;;0.23;100.00
53619;BME280;68717;53.040;18.488;2024-01-30T00:15:35;102839.59;;;0.22;100.00
53619;BME280;68717;53.040;18.488;2024-01-30T00:15:48;102836.09;;;0.23;100.00
53619;BME280;68717;53.040;18.488;2024-01-30T00:16:01;102841.38;;;0.23;100.00
53619;BME280;68717;53.040;18.488;2024-01-30T00:16:20;102836.09;;;0.23;100.00
53619;BME280;68717;53.040;18.488;2024-01-30T00:16:33;102836.09;;;0.23;100.00
53619;BME280;68717;53.040;18.488;2024-01-30T00:16:49;102841.38;;;0.23;100.00
53619;BME280;68717;53.040;18.488;2024-01-30T00:17:01;102838.72;;;0.23;100.00
53619;BME280;68717;53.040;18.488;2024-01-30T00:17:14;102841.38;;;0.23;100.00
53619;BME280;68717;53.040;18.488;2024-01-30T00:17:27;102838.72;;;0.23;100.00
53619;BME280;68717;53.040;18.488;2024-01-30T00:17:40;102845.75;;;0.24;100.00
53619;BME280;68717;53.040;18.488;2024-01-30T00:17:53;102841.38;;;0.23;100.00
53619;BME280;68717;53.040;18.488;2024-01-30T00:18:06;102837.81;;;0.24;100.00
53619;BME280;68717;53.040;18.488;2024-01-30T00:18:19;102832.56;;;0.24;100.00
53619;BME280;68717;53.040;18.488;2024-01-30T00:18:34;102843.09;;;0.24;100.00
53619;BME280;68717;53.040;18.488;2024-01-30T00:18:47;102840.47;;;0.24;100.00
53619;BME280;68717;53.040;18.488;2024-01-30T00:19:00;102843.09;;;0.24;100.00
53619;BME280;68717;53.040;18.488;2024-01-30T00:19:14;102840.47;;;0.24;100.00
53619;BME280;68717;53.040;18.488;2024-01-30T00:19:28;102837.81;;;0.24;100.00
53619;BME280;68717;53.040;18.488;2024-01-30T00:19:41;102844.88;;;0.23;100.00
53619;BME280;68717;53.040;18.488;2024-01-30T00:19:54;102838.72;;;0.23;100.00
53619;BME280;68717;53.040;18.488;2024-01-30T00:20:07;102839.59;;;0.23;100.00
53619;BME280;68717;53.040;18.488;2024-01-30T00:20:22;102836.97;;;0.22;100.00
53619;BME280;68717;53.040;18.488;2024-01-30T00:20:36;102844.00;;;0.23;100.00
53619;BME280;68717;53.040;18.488;2024-01-30T00:20:49;102843.16;;;0.22;100.00
53619;BME280;68717;53.040;18.488;2024-01-30T00:21:02;102838.72;;;0.23;100.00
53619;BME280;68717;53.040;18.488;2024-01-30T00:21:15;102840.47;;;0.24;100.00
53619;BME280;68717;53.040;18.488;2024-01-30T00:21:29;102843.09;;;0.24;100.00
53619;BME280;68717;53.040;18.488;2024-01-30T00:21:42;102840.47;;;0.24;100.00
53619;BME280;68717;53.040;18.488;2024-01-30T00:21:55;102842.25;;;0.23;100.00
53619;BME280;68717;53.040;18.488;2024-01-30T00:22:08;102836.09;;;0.23;100.00
53619;BME280;68717;53.040;18.488;2024-01-30T00:22:21;102842.25;;;0.23;100.00
53619;BME280;68717;53.040;18.488;2024-01-30T00:22:34;102845.75;;;0.24;100.00
53619;BME280;68717;53.040;18.488;2024-01-30T00:22:48;102837.81;;;0.24;100.00
53619;BME280;68717;53.040;18.488;2024-01-30T00:23:01;102845.75;;;0.24;100.00
53619;BME280;68717;53.040;18.488;2024-01-30T00:23:17;102845.75;;;0.24;100.00
53619;BME280;68717;53.040;18.488;2024-01-30T00:23:30;102837.81;;;0.24;100.00
53619;BME280;68717;53.040;18.488;2024-01-30T00:23:43;102844.88;;;0.23;100.00
53619;BME280;68717;53.040;18.488;2024-01-30T00:23:56;102843.09;;;0.24;100.00
53619;BME280;68717;53.040;18.488;2024-01-30T00:24:09;102842.25;;;0.23;100.00
53619;BME280;68717;53.040;18.488;2024-01-30T00:24:22;102838.72;;;0.23;100.00
53619;BME280;68717;53.040;18.488;2024-01-30T00:24:34;102841.38;;;0.23;100.00
53619;BME280;68717;53.040;18.488;2024-01-30T00:24:49;102835.22;;;0.22;100.00
53619;BME280;68717;53.040;18.488;2024-01-30T00:25:02;102838.72;;;0.23;100.00
53619;BME280;68717;53.040;18.488;2024-01-30T00:25:16;102843.16;;;0.22;100.00
53619;BME280;68717;53.040;18.488;2024-01-30T00:25:29;102844.00;;;0.23;100.00
53619;BME280;68717;53.040;18.488;2024-01-30T00:25:42;102839.59;;;0.23;100.00
53619;BME280;68717;53.040;18.488;2024-01-30T00:25:54;102845.78;;;0.22;100.00
53619;BME280;68717;53.040;18.488;2024-01-30T00:26:09;102842.25;;;0.22;100.00
53619;BME280;68717;53.040;18.488;2024-01-30T00:26:23;102837.00;;;0.20;100.00
53619;BME280;68717;53.040;18.488;2024-01-30T00:26:36;102840.50;;;0.21;100.00
53619;BME280;68717;53.040;18.488;2024-01-30T00:26:49;102843.16;;;0.21;100.00
53619;BME280;68717;53.040;18.488;2024-01-30T00:27:04;102836.13;;;0.20;100.00
53619;BME280;68717;53.040;18.488;2024-01-30T00:27:17;102837.00;;;0.20;100.00
53619;BME280;68717;53.040;18.488;2024-01-30T00:27:30;102841.41;;;0.20;100.00
53619;BME280;68717;53.040;18.488;2024-01-30T00:27:43;102839.66;;;0.19;100.00
53619;BME280;68717;53.040;18.488;2024-01-30T00:27:56;102830.88;;;0.20;100.00
53619;BME280;68717;53.040;18.488;2024-01-30T00:28:09;102839.66;;;0.19;100.00
53619;BME280;68717;53.040;18.488;2024-01-30T00:28:22;102836.16;;;0.18;100.00
53619;BME280;68717;53.040;18.488;2024-01-30T00:28:35;102834.38;;;0.19;100.00
53619;BME280;68717;53.040;18.488;2024-01-30T00:28:48;102835.25;;;0.19;100.00
53619;BME280;68717;53.040;18.488;2024-01-30T00:29:03;102838.78;;;0.18;100.00
53619;BME280;68717;53.040;18.488;2024-01-30T00:29:16;102837.00;;;0.19;100.00
53619;BME280;68717;53.040;18.488;2024-01-30T00:29:32;102836.16;;;0.18;100.00
53619;BME280;68717;53.040;18.488;2024-01-30T00:29:46;102837.91;;;0.18;100.00
53619;BME280;68717;53.040;18.488;2024-01-30T00:29:59;102826.47;;;0.17;100.00
53619;BME280;68717;53.040;18.488;2024-01-30T00:30:13;102837.91;;;0.18;100.00
53619;BME280;68717;53.040;18.488;2024-01-30T00:30:26;102837.91;;;0.18;100.00
53619;BME280;68717;53.040;18.488;2024-01-30T00:30:39;102839.66;;;0.17;100.00
53619;BME280;68717;53.040;18.488;2024-01-30T00:30:53;102832.63;;;0.18;100.00
53619;BME280;68717;53.040;18.488;2024-01-30T00:31:06;102833.50;;;0.16;100.00
53619;BME280;68717;53.040;18.488;2024-01-30T00:31:19;102837.91;;;0.18;100.00
53619;BME280;68717;53.040;18.488;2024-01-30T00:31:32;102835.28;;;0.18;100.00
53619;BME280;68717;53.040;18.488;2024-01-30T00:31:45;102836.16;;;0.16;100.00
53619;BME280;68717;53.040;18.488;2024-01-30T00:31:59;102836.16;;;0.16;100.00
53619;BME280;68717;53.040;18.488;2024-01-30T00:32:12;102830.00;;;0.16;100.00
53619;BME280;68717;53.040;18.488;2024-01-30T00:32:25;102837.91;;;0.16;100.00
53619;BME280;68717;53.040;18.488;2024-01-30T00:32:39;102832.66;;;0.16;100.00
53619;BME280;68717;53.040;18.488;2024-01-30T00:32:53;102830.00;;;0.16;100.00
53619;BME280;68717;53.040;18.488;2024-01-30T00:33:07;102831.78;;;0.15;100.00
53619;BME280;68717;53.040;18.488;2024-01-30T00:33:21;102834.41;;;0.15;100.00
53619;BME280;68717;53.040;18.488;2024-01-30T00:33:34;102830.88;;;0.16;100.00
53619;BME280;68717;53.040;18.488;2024-01-30T00:33:47;102830.00;;;0.16;100.00
53619;BME280;68717;53.040;18.488;2024-01-30T00:34:00;102825.59;;;0.15;100.00
53619;BME280;68717;53.040;18.488;2024-01-30T00:34:13;102830.00;;;0.14;100.00
53619;BME280;68717;53.040;18.488;2024-01-30T00:34:26;102834.41;;;0.15;100.00
53619;BME280;68717;53.040;18.488;2024-01-30T00:34:41;102833.50;;;0.15;100.00
53619;BME280;68717;53.040;18.488;2024-01-30T00:34:54;102827.38;;;0.14;100.00
53619;BME280;68717;53.040;18.488;2024-01-30T00:35:08;102822.09;;;0.14;100.00
53619;BME280;68717;53.040;18.488;2024-01-30T00:35:23;102825.66;;;0.13;100.00
53619;BME280;68717;53.040;18.488;2024-01-30T00:35:36;102824.72;;;0.14;100.00
53619;BME280;68717;53.040;18.488;2024-01-30T00:35:49;102826.50;;;0.14;100.00
53619;BME280;68717;53.040;18.488;2024-01-30T00:36:02;102828.28;;;0.13;100.00
53619;BME280;68717;53.040;18.488;2024-01-30T00:36:17;102827.38;;;0.14;100.00
53619;BME280;68717;53.040;18.488;2024-01-30T00:36:30;102825.66;;;0.13;100.00
53619;BME280;68717;53.040;18.488;2024-01-30T00:36:43;102830.91;;;0.13;100.00
53619;BME280;68717;53.040;18.488;2024-01-30T00:36:55;102824.75;;;0.13;100.00
53619;BME280;68717;53.040;18.488;2024-01-30T00:37:09;102830.91;;;0.13;100.00
53619;BME280;68717;53.040;18.488;2024-01-30T00:37:23;102827.38;;;0.14;100.00
53619;BME280;68717;53.040;18.488;2024-01-30T00:37:36;102829.16;;;0.14;100.00
53619;BME280;68717;53.040;18.488;2024-01-30T00:37:50;102830.91;;;0.13;100.00
53619;BME280;68717;53.040;18.488;2024-01-30T00:38:03;102825.66;;;0.13;100.00
53619;BME280;68717;53.040;18.488;2024-01-30T00:38:16;102829.16;;;0.14;100.00
53619;BME280;68717;53.040;18.488;2024-01-30T00:38:29;102832.66;;;0.14;100.00
53619;BME280;68717;53.040;18.488;2024-01-30T00:38:42;102830.91;;;0.13;100.00
53619;BME280;68717;53.040;18.488;2024-01-30T00:38:55;102822.09;;;0.13;100.00
53619;BME280;68717;53.040;18.488;2024-01-30T00:39:08;102825.66;;;0.13;100.00
53619;BME280;68717;53.040;18.488;2024-01-30T00:39:22;102823.88;;;0.12;100.00
53619;BME280;68717;53.040;18.488;2024-01-30T00:39:35;102829.16;;;0.12;100.00
53619;BME280;68717;53.040;18.488;2024-01-30T00:39:49;102830.91;;;0.13;100.00
53619;BME280;68717;53.040;18.488;2024-01-30T00:40:02;102831.78;;;0.12;100.00
53619;BME280;68717;53.040;18.488;2024-01-30T00:40:16;102830.00;;;0.13;100.00
53619;BME280;68717;53.040;18.488;2024-01-30T00:40:30;102829.16;;;0.12;100.00
53619;BME280;68717;53.040;18.488;2024-01-30T00:40:43;102828.28;;;0.12;100.00
53619;BME280;68717;53.040;18.488;2024-01-30T00:40:56;102828.28;;;0.12;100.00
53619;BME280;68717;53.040;18.488;2024-01-30T00:41:09;102827.41;;;0.11;100.00
53619;BME280;68717;53.040;18.488;2024-01-30T00:41:22;102832.69;;;0.11;100.00
53619;BME280;68717;53.040;18.488;2024-01-30T00:41:35;102836.19;;;0.12;100.00
53619;BME280;68717;53.040;18.488;2024-01-30T00:41:48;102830.06;;;0.11;100.00
53619;BME280;68717;53.040;18.488;2024-01-30T00:42:02;102836.19;;;0.12;100.00
53619;BME280;68717;53.040;18.488;2024-01-30T00:42:16;102829.19;;;0.11;100.00
53619;BME280;68717;53.040;18.488;2024-01-30T00:42:29;102833.56;;;0.10;100.00
53619;BME280;68717;53.040;18.488;2024-01-30T00:42:42;102830.94;;;0.10;100.00
53619;BME280;68717;53.040;18.488;2024-01-30T00:42:55;102828.28;;;0.10;100.00
53619;BME280;68717;53.040;18.488;2024-01-30T00:43:08;102837.97;;;0.11;100.00
53619;BME280;68717;53.040;18.488;2024-01-30T00:43:21;102828.28;;;0.10;100.00
53619;BME280;68717;53.040;18.488;2024-01-30T00:43:34;102830.94;;;0.10;100.00
53619;BME280;68717;53.040;18.488;2024-01-30T00:43:47;102830.06;;;0.10;100.00
53619;BME280;68717;53.040;18.488;2024-01-30T00:44:02;102828.28;;;0.10;100.00
53619;BME280;68717;53.040;18.488;2024-01-30T00:44:15;102835.34;;;0.10;100.00
53619;BME280;68717;53.040;18.488;2024-01-30T00:44:27;102836.19;;;0.10;100.00
53619;BME280;68717;53.040;18.488;2024-01-30T00:44:40;102830.94;;;0.10;100.00
53619;BME280;68717;53.040;18.488;2024-01-30T00:44:53;102836.19;;;0.10;100.00
53619;BME280;68717;53.040;18.488;2024-01-30T00:45:12;102834.47;;;0.09;100.00
53619;BME280;68717;53.040;18.488;2024-01-30T00:45:25;102832.69;;;0.08;100.00
53619;BME280;68717;53.040;18.488;2024-01-30T00:45:38;102835.34;;;0.10;100.00
53619;BME280;68717;53.040;18.488;2024-01-30T00:45:51;102829.19;;;0.09;100.00
53619;BME280;68717;53.040;18.488;2024-01-30T00:46:05;102829.19;;;0.09;100.00
53619;BME280;68717;53.040;18.488;2024-01-30T00:46:22;102829.19;;;0.09;100.00
53619;BME280;68717;53.040;18.488;2024-01-30T00:46:34;102834.47;;;0.09;100.00
53619;BME280;68717;53.040;18.488;2024-01-30T00:46:47;102833.56;;;0.10;100.00
53619;BME280;68717;53.040;18.488;2024-01-30T00:47:02;102841.50;;;0.09;100.00
53619;BME280;68717;53.040;18.488;2024-01-30T00:47:15;102834.47;;;0.09;100.00
53619;BME280;68717;53.040;18.488;2024-01-30T00:47:28;102834.47;;;0.09;100.00
53619;BME280;68717;53.040;18.488;2024-01-30T00:47:45;102834.47;;;0.09;100.00
53619;BME280;68717;53.040;18.488;2024-01-30T00:48:01;102832.69;;;0.08;100.00
53619;BME280;68717;53.040;18.488;2024-01-30T00:48:15;102835.34;;;0.08;100.00
53619;BME280;68717;53.040;18.488;2024-01-30T00:48:28;102840.59;;;0.10;100.00
53619;BME280;68717;53.040;18.488;2024-01-30T00:48:41;102838.88;;;0.09;100.00
53619;BME280;68717;53.040;18.488;2024-01-30T00:48:54;102835.34;;;0.10;100.00
53619;BME280;68717;53.040;18.488;2024-01-30T00:49:07;102834.47;;;0.09;100.00
53619;BME280;68717;53.040;18.488;2024-01-30T00:49:20;102827.44;;;0.08;100.00
53619;BME280;68717;53.040;18.488;2024-01-30T00:49:34;102839.75;;;0.09;100.00
53619;BME280;68717;53.040;18.488;2024-01-30T00:49:47;102838.88;;;0.09;100.00
53619;BME280;68717;53.040;18.488;2024-01-30T00:50:00;102837.97;;;0.08;100.00
53619;BME280;68717;53.040;18.488;2024-01-30T00:50:14;102837.97;;;0.08;100.00
53619;BME280;68717;53.040;18.488;2024-01-30T00:50:27;102832.69;;;0.08;100.00
53619;BME280;68717;53.040;18.488;2024-01-30T00:50:40;102827.44;;;0.08;100.00
53619;BME280;68717;53.040;18.488;2024-01-30T00:50:53;102830.06;;;0.08;100.00
53619;BME280;68717;53.040;18.488;2024-01-30T00:51:06;102831.84;;;0.08;100.00
53619;BME280;68717;53.040;18.488;2024-01-30T00:51:19;102832.69;;;0.08;100.00
53619;BME280;68717;53.040;18.488;2024-01-30T00:51:33;102837.97;;;0.08;100.00
53619;BME280;68717;53.040;18.488;2024-01-30T00:51:46;102835.34;;;0.08;100.00
53619;BME280;68717;53.040;18.488;2024-01-30T00:51:59;102830.97;;;0.09;100.00
53619;BME280;68717;53.040;18.488;2024-01-30T00:52:12;102833.59;;;0.09;100.00
53619;BME280;68717;53.040;18.488;2024-01-30T00:52:25;102833.59;;;0.09;100.00
53619;BME280;68717;53.040;18.488;2024-01-30T00:52:38;102827.44;;;0.08;100.00
53619;BME280;68717;53.040;18.488;2024-01-30T00:52:51;102823.91;;;0.08;100.00
53619;BME280;68717;53.040;18.488;2024-01-30T00:53:04;102831.84;;;0.08;100.00
53619;BME280;68717;53.040;18.488;2024-01-30T00:53:17;102825.69;;;0.07;100.00
53619;BME280;68717;53.040;18.488;2024-01-30T00:53:30;102832.69;;;0.08;100.00
53619;BME280;68717;53.040;18.488;2024-01-30T00:53:45;102828.31;;;0.09;100.00
53619;BME280;68717;53.040;18.488;2024-01-30T00:53:58;102833.59;;;0.09;100.00
53619;BME280;68717;53.040;18.488;2024-01-30T00:54:11;102830.97;;;0.09;100.00
53619;BME280;68717;53.040;18.488;2024-01-30T00:54:24;102823.06;;;0.09;100.00
53619;BME280;68717;53.040;18.488;2024-01-30T00:54:37;102821.28;;;0.08;100.00
53619;BME280;68717;53.040;18.488;2024-01-30T00:54:50;102823.91;;;0.08;100.00
53619;BME280;68717;53.040;18.488;2024-01-30T00:55:03;102821.28;;;0.08;100.00
53619;BME280;68717;53.040;18.488;2024-01-30T00:55:16;102830.09;;;0.07;100.00
53619;BME280;68717;53.040;18.488;2024-01-30T00:55:30;102820.41;;;0.09;100.00
53619;BME280;68717;53.040;18.488;2024-01-30T00:55:43;102824.78;;;0.08;100.00
53619;BME280;68717;53.040;18.488;2024-01-30T00:55:56;102824.78;;;0.08;100.00
53619;BME280;68717;53.040;18.488;2024-01-30T00:56:09;102827.44;;;0.08;100.00
53619;BME280;68717;53.040;18.488;2024-01-30T00:56:22;102823.06;;;0.09;100.00
53619;BME280;68717;53.040;18.488;2024-01-30T00:56:36;102827.41;;;0.10;100.00
53619;BME280;68717;53.040;18.488;2024-01-30T00:56:49;102823.91;;;0.09;100.00
53619;BME280;68717;53.040;18.488;2024-01-30T00:57:02;102822.16;;;0.08;100.00
53619;BME280;68717;53.040;18.488;2024-01-30T00:57:15;102816.00;;;0.09;100.00
53619;BME280;68717;53.040;18.488;2024-01-30T00:57:29;102823.91;;;0.09;100.00
53619;BME280;68717;53.040;18.488;2024-01-30T00:57:42;102826.56;;;0.09;100.00
53619;BME280;68717;53.040;18.488;2024-01-30T00:57:57;102821.28;;;0.09;100.00
53619;BME280;68717;53.040;18.488;2024-01-30T00:58:10;102818.66;;;0.09;100.00
53619;BME280;68717;53.040;18.488;2024-01-30T00:58:23;102823.91;;;0.09;100.00
53619;BME280;68717;53.040;18.488;2024-01-30T00:58:36;102818.66;;;0.09;100.00
53619;BME280;68717;53.040;18.488;2024-01-30T00:58:49;102823.91;;;0.09;100.00
53619;BME280;68717;53.040;18.488;2024-01-30T00:59:02;102817.78;;;0.09;100.00
53619;BME280;68717;53.040;18.488;2024-01-30T00:59:15;102823.91;;;0.09;100.00
53619;BME280;68717;53.040;18.488;2024-01-30T00:59:31;102818.66;;;0.09;100.00
53619;BME280;68717;53.040;18.488;2024-01-30T00:59:44;102823.91;;;0.09;100.00
53619;BME280;68717;53.040;18.488;2024-01-30T00:59:58;102819.50;;;0.08;100.00
53619;BME280;68717;53.040;18.488;2024-01-30T01:00:12;102820.41;;;0.09;100.00
53619;BME280;68717;53.040;18.488;2024-01-30T01:00:25;102819.50;;;0.08;100.00
53619;BME280;68717;53.040;18.488;2024-01-30T01:00:41;102820.41;;;0.09;100.00
53619;BME280;68717;53.040;18.488;2024-01-30T01:00:54;102823.91;;;0.09;100.00
53619;BME280;68717;53.040;18.488;2024-01-30T01:01:08;102822.16;;;0.08;100.00
53619;BME280;68717;53.040;18.488;2024-01-30T01:01:21;102813.38;;;0.09;100.00
53619;BME280;68717;53.040;18.488;2024-01-30T01:01:34;102822.16;;;0.08;100.00
53619;BME280;68717;53.040;18.488;2024-01-30T01:01:47;102821.28;;;0.08;100.00
53619;BME280;68717;53.040;18.488;2024-01-30T01:02:03;102820.41;;;0.07;100.00
53619;BME280;68717;53.040;18.488;2024-01-30T01:02:16;102813.38;;;0.08;100.00
53619;BME280;68717;53.040;18.488;2024-01-30T01:02:30;102816.00;;;0.08;100.00
53619;BME280;68717;53.040;18.488;2024-01-30T01:02:43;102817.78;;;0.07;100.00
53619;BME280;68717;53.040;18.488;2024-01-30T01:02:56;102821.28;;;0.08;100.00
53619;BME280;68717;53.040;18.488;2024-01-30T01:03:09;102810.75;;;0.06;100.00
53619;BME280;68717;53.040;18.488;2024-01-30T01:03:22;102816.00;;;0.06;100.00
53619;BME280;68717;53.040;18.488;2024-01-30T01:03:35;102813.38;;;0.06;100.00
53619;BME280;68717;53.040;18.488;2024-01-30T01:03:48;102818.66;;;0.06;100.00
53619;BME280;68717;53.040;18.488;2024-01-30T01:04:03;102817.78;;;0.06;100.00
53619;BME280;68717;53.040;18.488;2024-01-30T01:04:16;102817.78;;;0.06;100.00
53619;BME280;68717;53.040;18.488;2024-01-30T01:04:30;102810.78;;;0.05;100.00
53619;BME280;68717;53.040;18.488;2024-01-30T01:04:44;102811.66;;;0.05;100.00
53619;BME280;68717;53.040;18.488;2024-01-30T01:04:57;102809.88;;;0.04;100.00
53619;BME280;68717;53.040;18.488;2024-01-30T01:05:10;102814.28;;;0.05;100.00
53619;BME280;68717;53.040;18.488;2024-01-30T01:05:23;102816.06;;;0.05;100.00
53619;BME280;68717;53.040;18.488;2024-01-30T01:05:36;102816.91;;;0.05;100.00
53619;BME280;68717;53.040;18.488;2024-01-30T01:05:50;102812.50;;;0.04;100.00
53619;BME280;68717;53.040;18.488;2024-01-30T01:06:04;102810.78;;;0.05;100.00
53619;BME280;68717;53.040;18.488;2024-01-30T01:06:17;102809.88;;;0.04;100.00
53619;BME280;68717;53.040;18.488;2024-01-30T01:06:30;102809.88;;;0.04;100.00
53619;BME280;68717;53.040;18.488;2024-01-30T01:06:43;102810.78;;;0.05;100.00
53619;BME280;68717;53.040;18.488;2024-01-30T01:06:57;102815.16;;;0.04;100.00
53619;BME280;68717;53.040;18.488;2024-01-30T01:07:10;102812.50;;;0.06;100.00
53619;BME280;68717;53.040;18.488;2024-01-30T01:07:24;102809.88;;;0.04;100.00
53619;BME280;68717;53.040;18.488;2024-01-30T01:07:37;102809.88;;;0.04;100.00
53619;BME280;68717;53.040;18.488;2024-01-30T01:07:50;102804.59;;;0.04;100.00
53619;BME280;68717;53.040;18.488;2024-01-30T01:08:04;102805.50;;;0.05;100.00
53619;BME280;68717;53.040;18.488;2024-01-30T01:08:17;102805.50;;;0.05;100.00
53619;BME280;68717;53.040;18.488;2024-01-30T01:08:31;102810.78;;;0.05;100.00
53619;BME280;68717;53.040;18.488;2024-01-30T01:08:44;102809.88;;;0.04;100.00
53619;BME280;68717;53.040;18.488;2024-01-30T01:08:56;102810.78;;;0.05;100.00
53619;BME280;68717;53.040;18.488;2024-01-30T01:09:13;102815.16;;;0.04;100.00
53619;BME280;68717;53.040;18.488;2024-01-30T01:09:27;102812.50;;;0.04;100.00
53619;BME280;68717;53.040;18.488;2024-01-30T01:09:40;102812.50;;;0.04;100.00
53619;BME280;68717;53.040;18.488;2024-01-30T01:09:53;102815.16;;;0.04;100.00
53619;BME280;68717;53.040;18.488;2024-01-30T01:10:09;102809.88;;;0.04;100.00